Acequia, ID

5:17 AM MST on January 31, 2015 (GMT -0700)
Jerome County | Change Station
CLOSE
Current Station
Airport
Location: Jerome,
Elevation: 4049 ft
Nearby Weather Stations

Elev 4049 ft 42.73 °N, 114.46 °W | Updated 24 minutes ago

Overcast
Overcast
32 °F
Feels Like 32 °F
N
0
Wind Variable Wind from North

Today
High -- | Low -- °F
--% Chance of Precip.
Yesterday
High -- | Low -- °F
Precip. -- in
7:50 AM 5:47 PM
Waxing Gibbous, 89% visible
Pressure 30.16 in
Visibility 10.0 miles
Clouds Overcast 1200 ft
Dew Point 29 °F
Humidity 88%
Rainfall 0.00 in
Snow Depth Not available.
UV 0 out of 12
Pollen .30 out of 12
Air Quality Not available.
Flu Activity Not available.
METAR KJER 311153Z AUTO 00000KT 10SM OVC012 00/M02 A3011 RMK AO2 SLP213 I6000 T00001017 10000 21011 55002

More Conditions Fewer Conditions

Pressure 30.16 in
Visibility 10.0 miles
Clouds Overcast 1200 ft
Dew Point 29 °F
Humidity 88%
Rainfall 0.00 in
Snow Depth Not available.
UV 0 out of 12
Pollen .30 out of 12
Air Quality Not available.
Flu Activity Not available.
METAR KJER 311153Z AUTO 00000KT 10SM OVC012 00/M02 A3011 RMK AO2 SLP213 I6000 T00001017 10000 21011 55002

More Conditions Fewer Conditions

10-Day Weather Forecast

Almanac

Astronomy

Jan. 31, 2015 Rise Set
Actual Time
Civil Twilight
Nautical Twilight
Astronomical Twilight
Moon
Length of Visible Light
Length of Day
Tomorrow will be .
, % of the Moon is Illuminated

Today's Extremes

State Highs State Lows

Community

WunderPhotos

Upload Photos

1,792,036 photos uploaded!

WunderBlogs® & News

Nearby

Air Quality

  Air Quality AQ Index Pollutant
Not available.

Snow Depth

Station Depth Elevation

Earthquake Activity

City Distance Mag. Time & Date
Minimum magnitude displayed is 2.5.

Coastal Water Temperatures

Place Temperature

Nearby Weather Stations